Time;durP1;ratioP1;P1;durP2;ratioP2;P2;SDS_P1;SDS_P2;PMS_P1;PMS_P2;Temp;Humidity;BMP_temperature;BMP_pressure;BME280_temperature;BME280_humidity;BME280_pressure;Samples;Min_cycle;Max_cycle;Signal;HPM_P1;HPM_P2
2023/07/31 00:02:22;;;;;;;0.00;0.00;;;;;;;16.13;100.00;99952.28;5005989;28;20173;-87
2023/07/31 00:04:48;;;;;;;0.00;0.00;;;;;;;16.36;100.00;99944.91;5003859;28;20210;-87
2023/07/31 00:07:14;;;;;;;0.13;0.13;;;;;;;16.48;100.00;99946.69;5015937;28;20548;-87
2023/07/31 00:09:39;;;;;;;0.00;0.00;;;;;;;16.31;100.00;99928.63;5015755;28;20194;-87
2023/07/31 00:12:05;;;;;;;0.00;0.00;;;;;;;16.29;100.00;99932.91;5005893;28;20271;-87
2023/07/31 00:14:30;;;;;;;0.00;0.00;;;;;;;16.29;100.00;99946.72;5022868;28;20216;-86
2023/07/31 00:16:56;;;;;;;0.00;0.00;;;;;;;16.20;100.00;99924.88;5006283;28;20177;-87
2023/07/31 00:19:21;;;;;;;0.60;0.60;;;;;;;16.14;100.00;99929.06;5007383;28;20183;-86
2023/07/31 00:21:46;;;;;;;0.00;0.00;;;;;;;16.35;100.00;99935.03;5016929;28;20526;-87
2023/07/31 00:24:11;;;;;;;0.00;0.00;;;;;;;16.33;100.00;99926.31;5009479;28;20206;-87
2023/07/31 00:26:37;;;;;;;0.00;0.00;;;;;;;16.34;100.00;99935.38;5009400;28;20180;-86
2023/07/31 00:29:05;;;;;;;0.03;0.03;;;;;;;16.52;100.00;99938.53;5001331;28;20207;-87
2023/07/31 00:31:31;;;;;;;0.00;0.00;;;;;;;16.41;100.00;99930.03;5035003;28;20183;-87
2023/07/31 00:33:56;;;;;;;0.00;0.00;;;;;;;16.38;100.00;99929.97;5002776;28;20204;-87
2023/07/31 00:36:21;;;;;;;0.00;0.00;;;;;;;16.49;100.00;99939.22;5007595;28;20191;-85
2023/07/31 00:38:47;;;;;;;0.00;0.00;;;;;;;16.59;100.00;99942.19;5026127;28;20180;-87
2023/07/31 00:41:12;;;;;;;0.00;0.00;;;;;;;16.66;100.00;99941.56;5016129;28;20188;-87
2023/07/31 00:43:37;;;;;;;0.00;0.00;;;;;;;16.60;100.00;99924.50;5000724;28;20600;-87
2023/07/31 00:46:02;;;;;;;0.00;0.00;;;;;;;16.42;100.00;99934.38;5017084;28;20689;-87
2023/07/31 00:48:28;;;;;;;0.00;0.00;;;;;;;16.45;100.00;99930.09;5000863;28;20229;-87
2023/07/31 00:50:53;;;;;;;0.00;0.00;;;;;;;16.44;100.00;99936.78;5020230;28;20204;-87
2023/07/31 00:53:19;;;;;;;0.00;0.00;;;;;;;16.54;100.00;99938.94;5024701;28;20204;-86
2023/07/31 00:55:44;;;;;;;0.00;0.00;;;;;;;16.29;100.00;99932.91;5009433;28;20245;-86
2023/07/31 00:58:10;;;;;;;0.00;0.00;;;;;;;16.38;100.00;99936.28;5025541;28;20187;-87
2023/07/31 01:00:35;;;;;;;0.00;0.00;;;;;;;16.33;100.00;99922.75;5022508;28;20181;-87
2023/07/31 01:03:01;;;;;;;0.00;0.00;;;;;;;16.44;100.00;99926.53;5023415;28;20215;-87
2023/07/31 01:05:42;;;;;;;0.00;0.00;;;;;;;16.49;100.00;99926.25;5009129;28;20283;-85
2023/07/31 01:08:37;;;;;;;0.00;0.00;;;;;;;16.55;100.00;99919.28;5026787;28;20180;-86
2023/07/31 01:11:14;;;;;;;0.00;0.00;;;;;;;16.59;100.00;99928.41;5005365;28;20219;-87
2023/07/31 01:13:40;;;;;;;0.00;0.00;;;;;;;16.41;100.00;99916.25;4998512;28;20231;-85
2023/07/31 01:16:05;;;;;;;0.00;0.00;;;;;;;16.41;100.00;99916.25;5006084;28;20218;-86
2023/07/31 01:18:30;;;;;;;0.00;0.00;;;;;;;16.41;100.00;99921.75;5009037;28;20215;-87
2023/07/31 01:21:07;;;;;;;0.53;0.53;;;;;;;16.43;100.00;99915.88;5002596;28;20315;-86
2023/07/31 01:24:14;;;;;;;1.03;0.87;;;;;;;16.16;100.00;99895.63;5001204;28;20207;-87
2023/07/31 01:26:46;;;;;;;0.00;0.00;;;;;;;16.25;100.00;99910.00;5002952;28;20219;-87
2023/07/31 01:29:34;;;;;;;0.50;0.40;;;;;;;16.19;100.00;99901.22;5009213;28;20206;-86
2023/07/31 01:32:03;;;;;;;2.97;0.30;;;;;;;15.89;100.00;99884.44;5026647;28;20229;-86
2023/07/31 01:34:29;;;;;;;0.53;0.20;;;;;;;15.85;100.00;99896.53;5008803;28;20361;-86
2023/07/31 01:36:56;;;;;;;0.40;0.40;;;;;;;15.71;100.00;99894.28;5009248;28;20179;-86
2023/07/31 01:39:21;;;;;;;0.40;0.40;;;;;;;15.71;100.00;99895.06;5006792;28;20672;-86
2023/07/31 01:41:46;;;;;;;1.23;0.30;;;;;;;15.62;100.00;99893.66;4997343;28;20185;-86
2023/07/31 01:44:12;;;;;;;0.33;0.33;;;;;;;15.71;100.00;99897.03;5005370;28;20325;-86
2023/07/31 01:46:37;;;;;;;0.00;0.00;;;;;;;15.60;100.00;99893.22;5027174;28;20179;-86
2023/07/31 01:49:02;;;;;;;0.40;0.40;;;;;;;15.57;100.00;99875.44;5001064;28;20704;-87
2023/07/31 01:51:28;;;;;;;0.00;0.00;;;;;;;15.65;100.00;99881.94;5004900;28;20204;-86
2023/07/31 01:53:53;;;;;;;0.10;0.10;;;;;;;15.63;100.00;99873.25;5005268;28;20287;-87
2023/07/31 01:56:18;;;;;;;7.53;1.17;;;;;;;15.59;100.00;99875.06;5013124;28;20215;-86
2023/07/31 01:58:43;;;;;;;0.10;0.03;;;;;;;15.48;100.00;99861.09;4997442;28;20528;-86
2023/07/31 02:01:09;;;;;;;0.00;0.00;;;;;;;15.55;100.00;99872.25;5004950;28;20188;-86
2023/07/31 02:03:34;;;;;;;0.00;0.00;;;;;;;15.61;100.00;99864.53;5014239;28;20250;-87
2023/07/31 02:05:59;;;;;;;0.20;0.10;;;;;;;15.48;100.00;99861.09;5005332;28;20188;-85
2023/07/31 02:08:25;;;;;;;0.10;0.10;;;;;;;15.62;100.00;99860.63;5007527;28;20278;-87
2023/07/31 02:10:50;;;;;;;0.20;0.20;;;;;;;15.71;100.00;99863.97;5027607;28;20188;-87
2023/07/31 02:13:15;;;;;;;0.00;0.00;;;;;;;15.66;100.00;99862.31;5029876;28;20203;-86
2023/07/31 02:15:40;;;;;;;1.17;0.37;;;;;;;15.70;100.00;99854.91;5009662;28;20859;-84
2023/07/31 02:18:06;;;;;;;10.27;0.33;;;;;;;15.72;100.00;99862.81;4999981;28;20187;-85
2023/07/31 02:20:35;;;;;;;10.47;1.07;;;;;;;15.80;100.00;99852.75;5004763;28;20188;-85
2023/07/31 02:23:00;;;;;;;0.13;0.13;;;;;;;15.76;100.00;99849.91;5021144;28;20208;-84
2023/07/31 02:25:25;;;;;;;0.10;0.07;;;;;;;15.82;100.00;99844.94;5022980;28;20183;-86
2023/07/31 02:27:50;;;;;;;0.10;0.10;;;;;;;15.73;100.00;99834.91;5004960;28;20310;-86
2023/07/31 02:30:16;;;;;;;0.20;0.20;;;;;;;15.76;100.00;99833.38;5014195;28;20203;-86
2023/07/31 02:32:41;;;;;;;0.00;0.00;;;;;;;15.82;100.00;99831.16;5034113;28;20260;-83
2023/07/31 02:35:07;;;;;;;0.00;0.00;;;;;;;15.85;100.00;99845.00;5025838;28;20564;-85
2023/07/31 02:37:34;;;;;;;0.10;0.10;;;;;;;15.79;100.00;99835.44;5009767;28;20186;-86
2023/07/31 02:39:59;;;;;;;0.57;0.37;;;;;;;15.90;100.00;99838.41;5025366;28;20179;-86
2023/07/31 02:42:24;;;;;;;0.10;0.10;;;;;;;16.01;100.00;99839.41;5015791;28;20760;-86
2023/07/31 02:44:55;;;;;;;0.00;0.00;;;;;;;15.92;100.00;99838.88;5001683;28;20240;-86
2023/07/31 02:47:20;;;;;;;0.00;0.00;;;;;;;15.97;100.00;99831.09;5023703;28;20770;-86
2023/07/31 02:49:46;;;;;;;0.00;0.00;;;;;;;16.05;100.00;99835.56;5002143;28;20208;-87
2023/07/31 02:52:11;;;;;;;0.00;0.00;;;;;;;16.08;100.00;99836.03;5022074;28;20184;-86
2023/07/31 02:54:36;;;;;;;0.50;0.37;;;;;;;15.91;100.00;99827.03;5007441;28;20747;-86
2023/07/31 02:57:02;;;;;;;0.10;0.10;;;;;;;15.93;100.00;99835.75;5007584;28;20290;-86
2023/07/31 02:59:28;;;;;;;0.30;0.23;;;;;;;15.82;100.00;99831.97;4996834;28;20271;-87
2023/07/31 03:01:53;;;;;;;0.20;0.20;;;;;;;15.87;100.00;99834.41;4995744;28;20184;-87
2023/07/31 03:04:18;;;;;;;0.00;0.00;;;;;;;15.90;100.00;99835.66;5022278;28;20207;-86
2023/07/31 03:06:43;;;;;;;0.30;0.30;;;;;;;15.87;100.00;99839.13;5005329;28;20607;-86
2023/07/31 03:09:09;;;;;;;0.00;0.00;;;;;;;15.94;100.00;99831.81;5005036;28;20200;-86
2023/07/31 03:11:34;;;;;;;0.20;0.20;;;;;;;15.88;100.00;99841.53;5025981;28;20263;-86
2023/07/31 03:13:59;;;;;;;0.10;0.10;;;;;;;15.80;100.00;99839.78;5001006;28;20220;-86
2023/07/31 03:16:24;;;;;;;0.13;0.13;;;;;;;15.84;100.00;99840.66;5006951;28;20192;-85
2023/07/31 03:18:50;;;;;;;0.50;0.27;;;;;;;15.84;100.00;99832.38;5002569;28;20176;-86
2023/07/31 03:21:15;;;;;;;0.40;0.40;;;;;;;15.83;100.00;99833.56;5022437;28;20263;-86
2023/07/31 03:23:40;;;;;;;0.20;0.20;;;;;;;15.81;100.00;99835.06;5009109;28;20587;-85
2023/07/31 03:26:08;;;;;;;0.20;0.20;;;;;;;15.91;100.00;99853.75;5000131;28;20678;-86
2023/07/31 03:28:33;;;;;;;0.37;0.37;;;;;;;15.81;100.00;99835.88;4984904;28;20180;-86
2023/07/31 03:30:59;;;;;;;0.00;0.00;;;;;;;15.89;100.00;99851.38;5026993;28;20181;-86
2023/07/31 03:33:25;;;;;;;0.43;0.30;;;;;;;15.81;100.00;99848.84;5006579;28;20694;-85
2023/07/31 03:35:50;;;;;;;0.50;0.40;;;;;;;15.67;100.00;99846.59;5004852;28;20218;-86
2023/07/31 03:38:16;;;;;;;0.43;0.30;;;;;;;15.71;100.00;99858.47;5009614;28;20547;-86
2023/07/31 03:40:41;;;;;;;0.20;0.20;;;;;;;15.55;100.00;99854.94;5017175;28;20176;-86
2023/07/31 03:43:06;;;;;;;0.20;0.20;;;;;;;15.73;100.00;99853.38;5008861;28;20207;-86
2023/07/31 03:45:32;;;;;;;0.33;0.33;;;;;;;15.80;100.00;99853.56;5026010;28;20180;-85
2023/07/31 03:47:57;;;;;;;1.13;0.20;;;;;;;15.77;100.00;99857.84;5026937;28;20229;-85
2023/07/31 03:50:22;;;;;;;0.00;0.00;;;;;;;15.77;100.00;99857.84;5007428;28;20212;-85
2023/07/31 03:52:48;;;;;;;0.03;0.03;;;;;;;15.72;100.00;99860.06;5003116;28;20186;-86
2023/07/31 03:55:13;;;;;;;0.33;0.23;;;;;;;15.72;100.00;99860.06;5008642;28;20179;-85
2023/07/31 03:57:38;;;;;;;0.20;0.20;;;;;;;15.49;100.00;99851.66;5013029;28;20657;-83
2023/07/31 04:00:04;;;;;;;0.00;0.00;;;;;;;15.57;100.00;99856.16;5011949;28;20180;-86
2023/07/31 04:02:29;;;;;;;0.00;0.00;;;;;;;15.42;100.00;99844.03;5017284;28;20187;-87
2023/07/31 04:04:55;;;;;;;0.30;0.30;;;;;;;15.31;100.00;99851.25;5022584;28;20230;-86
2023/07/31 04:07:20;;;;;;;2.83;0.67;;;;;;;15.37;100.00;99849.81;5014709;28;20176;-86
2023/07/31 04:09:45;;;;;;;0.00;0.00;;;;;;;15.28;100.00;99848.41;5013847;28;20196;-83
2023/07/31 04:12:11;;;;;;;0.00;0.00;;;;;;;15.31;100.00;99850.44;5020831;28;20179;-86
2023/07/31 04:14:37;;;;;;;0.10;0.10;;;;;;;15.33;100.00;99846.16;5003767;28;20215;-87
2023/07/31 04:17:02;;;;;;;0.77;0.37;;;;;;;15.32;100.00;99852.03;5016754;28;20183;-87
2023/07/31 04:19:27;;;;;;;0.00;0.00;;;;;;;15.27;100.00;99850.38;5020872;28;20203;-85
2023/07/31 04:21:53;;;;;;;0.00;0.00;;;;;;;15.30;100.00;99841.38;5031604;28;20171;-85
2023/07/31 04:24:24;;;;;;;0.00;0.00;;;;;;;15.44;100.00;99838.16;5012959;28;20211;-86
2023/07/31 04:26:49;;;;;;;0.00;0.00;;;;;;;15.48;100.00;99845.38;5033660;28;20227;-86
2023/07/31 04:29:15;;;;;;;0.00;0.00;;;;;;;15.36;100.00;99839.97;5021461;28;20200;-86
2023/07/31 04:31:41;;;;;;;0.07;0.07;;;;;;;15.40;100.00;99840.84;5022809;28;20180;-87
2023/07/31 04:34:06;;;;;;;0.00;0.00;;;;;;;15.42;100.00;99833.03;5009702;28;20216;-83
2023/07/31 04:36:32;;;;;;;0.00;0.00;;;;;;;15.45;100.00;99840.56;5023358;28;20237;-87
2023/07/31 04:38:58;;;;;;;0.00;0.00;;;;;;;15.49;100.00;99840.66;5030649;28;20175;-87
2023/07/31 04:41:23;;;;;;;0.00;0.00;;;;;;;15.51;100.00;99843.06;5023892;28;20192;-86
2023/07/31 04:43:48;;;;;;;0.00;0.00;;;;;;;15.44;100.00;99838.16;5019687;28;20207;-86
2023/07/31 04:46:13;;;;;;;0.00;0.00;;;;;;;15.42;100.00;99840.47;5035524;28;20190;-84
2023/07/31 04:48:39;;;;;;;0.00;0.00;;;;;;;15.50;100.00;99846.97;5014788;28;20275;-87
2023/07/31 04:51:04;;;;;;;0.17;0.17;;;;;;;15.46;100.00;99841.34;5013767;28;20184;-86
2023/07/31 04:53:29;;;;;;;0.10;0.10;;;;;;;15.46;100.00;99831.13;5013610;28;20201;-87
2023/07/31 04:55:55;;;;;;;0.00;0.00;;;;;;;15.48;100.00;99836.31;5006349;28;20216;-86
2023/07/31 04:58:20;;;;;;;0.10;0.10;;;;;;;15.58;100.00;99834.94;5022588;28;20658;-83
2023/07/31 05:00:45;;;;;;;0.10;0.10;;;;;;;15.52;100.00;99822.63;5030743;28;20173;-87
2023/07/31 05:03:11;;;;;;;0.57;0.57;;;;;;;15.51;100.00;99818.28;5031084;28;20278;-86
2023/07/31 05:05:36;;;;;;;0.73;0.60;;;;;;;15.56;100.00;99826.25;5015962;28;20183;-86
2023/07/31 05:08:02;;;;;;;0.60;0.60;;;;;;;15.56;100.00;99823.47;5034070;28;20198;-86
2023/07/31 05:10:27;;;;;;;0.47;0.17;;;;;;;15.57;100.00;99825.88;5004163;28;20207;-86
2023/07/31 05:12:52;;;;;;;1.13;0.87;;;;;;;15.60;100.00;99830.69;5010810;28;20195;-87
2023/07/31 05:15:17;;;;;;;1.33;1.23;;;;;;;15.69;100.00;99827.75;5010569;28;20251;-87
2023/07/31 05:17:43;;;;;;;0.20;0.20;;;;;;;15.73;100.00;99823.91;5019578;28;20176;-85
2023/07/31 05:20:09;;;;;;;1.27;1.17;;;;;;;15.73;100.00;99820.34;5002190;28;20246;-84
2023/07/31 05:22:34;;;;;;;2.03;1.93;;;;;;;15.69;100.00;99824.97;5029971;28;20594;-85
2023/07/31 05:24:59;;;;;;;1.37;1.27;;;;;;;15.77;100.00;99818.47;5022720;28;20204;-86
2023/07/31 05:27:25;;;;;;;2.93;1.53;;;;;;;15.80;100.00;99816.97;5011213;28;20188;-85
2023/07/31 05:29:50;;;;;;;3.60;2.20;;;;;;;15.82;100.00;99815.44;5028785;28;20196;-85
2023/07/31 05:32:15;;;;;;;2.53;2.33;;;;;;;15.83;100.00;99817.03;5003873;28;20177;-86
2023/07/31 05:34:41;;;;;;;5.10;2.33;;;;;;;15.78;100.00;99817.31;5008167;28;20200;-86
2023/07/31 05:37:06;;;;;;;1.90;1.80;;;;;;;15.86;100.00;99819.03;5009430;28;20184;-87
2023/07/31 05:39:31;;;;;;;6.23;4.10;;;;;;;15.80;100.00;99805.94;5021060;28;20184;-87
2023/07/31 05:41:57;;;;;;;1.93;1.67;;;;;;;15.90;100.00;99817.16;5011781;28;20187;-86
2023/07/31 05:44:22;;;;;;;1.03;1.03;;;;;;;15.94;100.00;99823.56;5027362;28;20219;-85
2023/07/31 05:46:47;;;;;;;1.90;1.80;;;;;;;15.91;100.00;99813.28;5008595;28;20208;-88
2023/07/31 05:49:13;;;;;;;12.00;3.07;;;;;;;15.94;100.00;99812.53;5000052;28;20212;-86
2023/07/31 05:51:38;;;;;;;0.70;0.70;;;;;;;16.03;100.00;99806.78;5014146;28;20191;-85
2023/07/31 05:54:03;;;;;;;1.13;1.13;;;;;;;15.98;100.00;99807.88;5036939;28;20678;-86
2023/07/31 05:56:28;;;;;;;7.77;1.40;;;;;;;15.96;100.00;99809.41;4999989;28;20180;-85
2023/07/31 05:58:54;;;;;;;1.23;1.17;;;;;;;15.97;100.00;99811.00;5006586;28;20199;-84
2023/07/31 06:01:21;;;;;;;3.60;3.30;;;;;;;15.88;100.00;99804.91;5021156;28;20195;-85
2023/07/31 06:03:46;;;;;;;1.70;1.37;;;;;;;15.90;100.00;99808.88;5006133;28;20204;-87
2023/07/31 06:06:11;;;;;;;2.73;1.20;;;;;;;15.84;100.00;99804.84;5006169;28;20175;-87
2023/07/31 06:08:37;;;;;;;0.87;0.83;;;;;;;15.78;100.00;99811.81;5025775;28;20583;-86
2023/07/31 06:11:02;;;;;;;2.47;2.17;;;;;;;15.91;100.00;99810.50;5007570;28;20182;-86
2023/07/31 06:13:27;;;;;;;0.70;0.70;;;;;;;15.88;100.00;99807.66;5004114;28;20199;-86
2023/07/31 06:15:53;;;;;;;15.17;2.07;;;;;;;15.90;100.00;99813.59;5013985;28;20179;-86
2023/07/31 06:18:18;;;;;;;0.73;0.73;;;;;;;15.96;100.00;99803.91;5026518;28;20639;-86
2023/07/31 06:20:44;;;;;;;2.47;2.13;;;;;;;15.94;100.00;99808.97;5021042;28;20251;-86
2023/07/31 06:23:09;;;;;;;1.37;1.23;;;;;;;15.97;100.00;99798.03;5015325;28;20203;-86
2023/07/31 06:25:34;;;;;;;2.30;2.17;;;;;;;15.99;100.00;99800.41;5029158;28;20610;-86
2023/07/31 06:28:00;;;;;;;1.97;1.87;;;;;;;15.90;100.00;99805.34;5020287;28;20262;-86
2023/07/31 06:30:25;;;;;;;2.70;2.50;;;;;;;15.91;100.00;99810.50;5009973;28;20210;-87
2023/07/31 06:32:50;;;;;;;2.70;2.50;;;;;;;15.91;100.00;99799.50;5000647;28;20176;-87
2023/07/31 06:35:15;;;;;;;6.17;3.57;;;;;;;15.93;100.00;99810.16;5009755;28;20673;-87
2023/07/31 06:37:43;;;;;;;1.00;0.93;;;;;;;15.93;100.00;99802.69;5005699;28;20312;-86
2023/07/31 06:40:09;;;;;;;0.63;0.40;;;;;;;15.90;100.00;99806.13;5028771;28;20172;-86
2023/07/31 06:42:35;;;;;;;3.60;2.33;;;;;;;15.87;100.00;99803.31;5004288;28;20179;-86
2023/07/31 06:45:01;;;;;;;4.90;3.93;;;;;;;15.83;100.00;99807.97;5031753;28;20206;-86
2023/07/31 06:47:27;;;;;;;4.07;3.67;;;;;;;15.93;100.00;99808.19;5007218;28;20269;-86
2023/07/31 06:49:52;;;;;;;0.90;0.80;;;;;;;16.00;100.00;99807.53;5019186;28;20750;-87
2023/07/31 06:52:17;;;;;;;6.57;3.00;;;;;;;16.00;100.00;99810.28;5026118;28;20180;-86
2023/07/31 06:54:42;;;;;;;7.30;3.87;;;;;;;15.97;100.00;99800.78;5003140;28;20224;-87
2023/07/31 06:57:08;;;;;;;7.13;5.87;;;;;;;15.98;100.00;99805.13;5014672;28;20176;-87
2023/07/31 06:59:33;;;;;;;9.33;4.07;;;;;;;16.11;100.00;99796.72;5008005;28;20180;-86
2023/07/31 07:01:58;;;;;;;0.80;0.80;;;;;;;16.11;100.00;99785.69;5005540;28;20176;-86
2023/07/31 07:04:24;;;;;;;3.07;2.57;;;;;;;16.07;100.00;99777.38;5014514;28;20306;-86
2023/07/31 07:06:49;;;;;;;4.53;2.93;;;;;;;16.09;100.00;99790.78;5015403;28;20190;-86
2023/07/31 07:09:14;;;;;;;3.70;2.83;;;;;;;16.10;100.00;99782.13;5027738;28;20204;-87
2023/07/31 07:11:40;;;;;;;11.43;3.70;;;;;;;16.00;100.00;99763.44;5025360;28;20271;-86
2023/07/31 07:14:05;;;;;;;3.00;2.80;;;;;;;16.06;100.00;99770.25;5000766;28;20239;-86
2023/07/31 07:16:30;;;;;;;2.30;1.80;;;;;;;16.06;100.00;99765.53;5024012;28;20654;-86
2023/07/31 07:18:56;;;;;;;6.53;2.20;;;;;;;16.09;100.00;99771.50;5022461;28;20203;-86
2023/07/31 07:21:21;;;;;;;5.03;1.17;;;;;;;16.13;100.00;99758.56;5008026;28;20246;-86
2023/07/31 07:23:46;;;;;;;10.33;2.97;;;;;;;16.23;100.00;99761.53;5003284;28;20703;-84
2023/07/31 07:26:12;;;;;;;0.73;0.37;;;;;;;16.24;100.00;99762.31;5009603;28;20189;-86
2023/07/31 07:28:37;;;;;;;4.60;3.73;;;;;;;16.21;100.00;99771.31;5010093;28;20182;-86
2023/07/31 07:31:03;;;;;;;1.30;1.30;;;;;;;16.21;100.00;99771.31;5027319;28;20184;-86
2023/07/31 07:33:28;;;;;;;7.83;2.93;;;;;;;16.31;100.00;99763.22;5006328;28;20227;-86
2023/07/31 07:35:54;;;;;;;3.50;2.53;;;;;;;16.35;100.00;99755.03;5006916;28;20588;-86
2023/07/31 07:38:19;;;;;;;0.47;0.47;;;;;;;16.46;100.00;99753.25;4999222;28;20180;-86
2023/07/31 07:40:46;;;;;;;0.80;0.80;;;;;;;16.47;100.00;99754.84;5004663;28;20185;-86
2023/07/31 07:43:12;;;;;;;8.97;2.43;;;;;;;16.31;100.00;99754.97;5014438;28;20294;-87
2023/07/31 07:45:37;;;;;;;3.67;3.00;;;;;;;16.36;100.00;99764.91;5009819;28;20265;-87
2023/07/31 07:48:02;;;;;;;1.80;1.63;;;;;;;16.35;100.00;99777.09;5010883;28;20234;-86
2023/07/31 07:50:28;;;;;;;1.90;1.80;;;;;;;16.38;100.00;99781.88;5006591;28;20204;-86
2023/07/31 07:52:53;;;;;;;2.07;1.77;;;;;;;16.38;100.00;99781.06;5007300;28;20858;-86
2023/07/31 07:55:18;;;;;;;2.57;2.37;;;;;;;16.36;100.00;99789.72;5028273;28;20267;-86
2023/07/31 07:57:44;;;;;;;1.60;1.47;;;;;;;16.31;100.00;99785.28;5030294;28;20728;-86
2023/07/31 08:00:10;;;;;;;1.00;1.00;;;;;;;16.39;100.00;99782.66;5027488;28;20175;-86
2023/07/31 08:02:36;;;;;;;1.47;1.37;;;;;;;16.29;100.00;99778.53;5011853;28;20175;-86
2023/07/31 08:05:01;;;;;;;1.37;1.27;;;;;;;16.30;100.00;99780.13;5021184;28;20314;-87
2023/07/31 08:07:26;;;;;;;0.50;0.50;;;;;;;16.36;100.00;99779.50;5025836;28;20176;-85
2023/07/31 08:09:52;;;;;;;1.37;1.33;;;;;;;16.32;100.00;99783.31;5008003;28;20242;-86
2023/07/31 08:12:17;;;;;;;2.87;2.47;;;;;;;16.20;100.00;99770.53;5024359;28;20176;-86
2023/07/31 08:14:42;;;;;;;0.00;0.00;;;;;;;16.34;100.00;99790.06;5033438;28;20243;-87
2023/07/31 08:17:08;;;;;;;2.70;1.30;;;;;;;16.30;100.00;99780.94;5029005;28;20274;-86
2023/07/31 08:19:34;;;;;;;0.73;0.73;;;;;;;16.29;100.00;99779.34;5012076;28;20557;-86
2023/07/31 08:21:59;;;;;;;0.00;0.00;;;;;;;16.43;100.00;99795.34;5009420;28;20180;-87
2023/07/31 08:24:24;;;;;;;2.83;2.43;;;;;;;16.43;100.00;99791.78;5018745;28;20192;-86
2023/07/31 08:26:50;;;;;;;1.60;1.50;;;;;;;16.50;100.00;99783.66;5026616;28;20199;-86
2023/07/31 08:29:15;;;;;;;3.43;2.27;;;;;;;16.49;100.00;99771.00;5027441;28;20204;-87
2023/07/31 08:31:40;;;;;;;2.03;1.17;;;;;;;16.58;100.00;99780.66;5029449;28;20172;-86
2023/07/31 08:34:05;;;;;;;0.63;0.63;;;;;;;16.53;100.00;99772.69;5029807;28;20702;-86
2023/07/31 08:36:31;;;;;;;2.00;1.90;;;;;;;16.51;100.00;99777.78;5003795;28;20191;-86
2023/07/31 08:38:56;;;;;;;1.57;1.47;;;;;;;16.54;100.00;99777.03;5011856;28;20176;-87
2023/07/31 08:41:21;;;;;;;1.30;1.20;;;;;;;16.58;100.00;99771.56;5009459;28;20186;-86
2023/07/31 08:43:49;;;;;;;0.80;0.67;;;;;;;16.65;100.00;99767.00;5007611;28;20205;-86
2023/07/31 08:46:14;;;;;;;2.17;2.07;;;;;;;16.70;100.00;99767.88;5009449;28;20183;-86
2023/07/31 08:48:42;;;;;;;3.50;3.23;;;;;;;16.66;100.00;99754.00;5025042;28;20176;-87
2023/07/31 08:51:08;;;;;;;2.57;2.07;;;;;;;16.52;100.00;99767.53;5000340;28;20181;-88
2023/07/31 08:53:34;;;;;;;9.00;1.57;;;;;;;16.49;100.00;99771.84;5007985;28;20258;-87
2023/07/31 08:55:59;;;;;;;3.80;2.10;;;;;;;16.41;100.00;99761.84;5010339;28;20267;-86
2023/07/31 08:58:31;;;;;;;1.73;1.57;;;;;;;16.38;100.00;99773.59;5036510;28;20258;-86
2023/07/31 09:00:57;;;;;;;2.23;2.03;;;;;;;16.30;100.00;99758.88;5028325;28;20176;-86
2023/07/31 09:03:25;;;;;;;2.83;1.63;;;;;;;16.36;100.00;99762.16;5037036;28;20199;-86
2023/07/31 09:05:51;;;;;;;1.93;1.73;;;;;;;16.31;100.00;99765.19;5010882;28;20234;-87
2023/07/31 09:08:21;;;;;;;2.33;1.63;;;;;;;16.39;100.00;99761.41;5004674;28;20275;-86
2023/07/31 09:10:49;;;;;;;0.10;0.10;;;;;;;16.39;100.00;99761.41;5026167;28;20275;-86
2023/07/31 09:13:15;;;;;;;11.23;0.73;;;;;;;16.50;100.00;99759.63;5010663;28;20200;-86
2023/07/31 09:15:43;;;;;;;0.23;0.23;;;;;;;16.55;100.00;99761.28;5020423;28;20303;-86
2023/07/31 09:18:08;;;;;;;0.47;0.47;;;;;;;16.53;100.00;99758.09;5012806;28;20176;-88
2023/07/31 09:20:35;;;;;;;0.63;0.63;;;;;;;16.47;100.00;99754.84;5014143;28;20271;-85
2023/07/31 09:23:09;;;;;;;0.87;0.87;;;;;;;16.45;100.00;99754.41;5011948;28;20186;-86
2023/07/31 09:25:35;;;;;;;0.00;0.00;;;;;;;16.45;100.00;99751.66;5011552;28;20266;-86
2023/07/31 09:28:04;;;;;;;0.00;0.00;;;;;;;16.55;100.00;99753.00;5003608;28;20207;-86
2023/07/31 09:30:30;;;;;;;1.27;1.17;;;;;;;16.55;100.00;99748.28;5011740;28;20224;-86
2023/07/31 09:33:04;;;;;;;0.30;0.30;;;;;;;16.61;100.00;99744.03;5010656;28;20187;-85
2023/07/31 09:35:31;;;;;;;1.20;0.73;;;;;;;16.75;100.00;99751.00;5015621;28;20658;-86
2023/07/31 09:38:10;;;;;;;0.00;0.00;;;;;;;16.75;100.00;99740.75;5016483;28;20218;-86
2023/07/31 09:40:40;;;;;;;0.00;0.00;;;;;;;16.78;100.00;99741.97;4996936;28;20238;-85
2023/07/31 09:43:07;;;;;;;0.00;0.00;;;;;;;16.75;100.00;99737.19;5029468;28;20205;-86
2023/07/31 09:45:38;;;;;;;0.17;0.17;;;;;;;16.82;100.00;99737.31;5006207;28;20681;-86
2023/07/31 09:48:10;;;;;;;0.00;0.00;;;;;;;16.92;100.00;99739.44;5024402;28;20177;-87
2023/07/31 09:50:38;;;;;;;0.10;0.10;;;;;;;17.05;100.00;99734.50;5012432;28;20219;-86
2023/07/31 09:53:04;;;;;;;0.00;0.00;;;;;;;16.98;100.00;99732.44;5020569;28;20202;-86
2023/07/31 09:55:31;;;;;;;0.83;0.60;;;;;;;16.96;100.00;99721.00;5006607;28;20179;-86
2023/07/31 09:57:57;;;;;;;0.20;0.20;;;;;;;16.91;100.00;99724.03;5019490;28;20180;-86
2023/07/31 10:00:26;;;;;;;0.33;0.23;;;;;;;16.88;100.00;99711.00;5001674;28;20252;-86
2023/07/31 10:02:52;;;;;;;1.90;1.60;;;;;;;16.89;100.00;99712.59;5025564;28;20176;-87
2023/07/31 10:05:19;;;;;;;0.30;0.30;;;;;;;17.05;100.00;99710.47;5027041;28;20643;-87
2023/07/31 10:07:55;;;;;;;0.20;0.20;;;;;;;17.15;100.00;99703.50;5026830;28;20823;-86
2023/07/31 10:10:22;;;;;;;0.83;0.83;;;;;;;17.23;100.00;99702.44;5009843;28;20215;-86
2023/07/31 10:12:52;;;;;;;4.43;0.90;;;;;;;17.22;100.00;99707.16;5011701;28;20187;-87
2023/07/31 10:15:18;;;;;;;0.50;0.50;;;;;;;17.21;100.00;99702.81;5021902;28;20188;-86
2023/07/31 10:17:47;;;;;;;0.00;0.00;;;;;;;17.35;100.00;99696.66;5006867;28;20188;-86
2023/07/31 10:20:16;;;;;;;0.23;0.23;;;;;;;17.44;100.00;99704.66;5007421;28;20205;-85
2023/07/31 10:22:43;;;;;;;0.20;0.20;;;;;;;17.57;100.00;99702.47;5003742;28;20578;-86
2023/07/31 10:25:09;;;;;;;1.70;1.03;;;;;;;17.53;100.00;99696.91;5001533;28;20176;-86
2023/07/31 10:27:41;;;;;;;0.10;0.10;;;;;;;17.52;100.00;99689.78;5007541;28;20184;-87
2023/07/31 10:30:15;;;;;;;1.70;0.77;;;;;;;17.44;100.00;99677.06;5017131;28;20204;-86
2023/07/31 10:32:43;;;;;;;0.10;0.10;;;;;;;17.44;100.00;99677.06;5021408;28;20172;-86
2023/07/31 10:35:14;;;;;;;2.37;1.30;;;;;;;17.45;100.00;99679.44;5010023;28;20573;-87
2023/07/31 10:37:44;;;;;;;0.20;0.20;;;;;;;17.54;100.00;99671.66;5023094;28;20207;-86
2023/07/31 10:40:19;;;;;;;0.93;0.93;;;;;;;17.58;100.00;99668.13;5007070;28;20199;-86
2023/07/31 10:42:57;;;;;;;7.50;1.47;;;;;;;17.70;100.00;99674.22;5005962;28;20226;-85
2023/07/31 10:45:32;;;;;;;2.60;0.60;;;;;;;17.84;100.00;99666.09;5019393;28;20230;-85
2023/07/31 10:48:05;;;;;;;0.83;0.67;;;;;;;18.16;100.00;99676.66;5005530;28;20175;-85
2023/07/31 10:50:38;;;;;;;1.07;1.00;;;;;;;18.47;100.00;99666.25;5007148;28;20200;-85
2023/07/31 10:53:04;;;;;;;4.97;1.40;;;;;;;18.62;100.00;99645.81;5012394;28;20246;-87
2023/07/31 10:55:31;;;;;;;0.20;0.20;;;;;;;18.84;100.00;99653.09;5015846;28;20176;-87
2023/07/31 10:58:04;;;;;;;1.17;1.07;;;;;;;19.01;100.00;99646.09;5005456;28;20655;-86
2023/07/31 11:00:39;;;;;;;0.90;0.33;;;;;;;19.06;100.00;99640.16;5014116;28;20172;-86
2023/07/31 11:03:08;;;;;;;1.63;1.17;;;;;;;19.08;100.00;99623.94;5001945;28;20192;-87
2023/07/31 11:05:50;;;;;;;1.27;1.27;;;;;;;19.16;100.00;99631.13;4996268;28;20180;-86
2023/07/31 11:08:22;;;;;;;1.83;0.73;;;;;;;19.01;100.00;99623.94;5003362;28;20180;-86
2023/07/31 11:10:50;;;;;;;1.70;1.57;;;;;;;18.87;100.00;99604.47;4998642;28;20266;-86
2023/07/31 11:13:15;;;;;;;2.27;1.00;;;;;;;18.99;100.00;99618.00;4998870;28;20207;-86
2023/07/31 11:15:43;;;;;;;0.67;0.37;;;;;;;19.00;100.00;99623.13;5015574;28;20176;-86
2023/07/31 11:18:10;;;;;;;1.20;1.13;;;;;;;18.89;100.00;99622.28;4998053;28;20685;-85
2023/07/31 11:20:38;;;;;;;1.33;1.07;;;;;;;18.86;100.00;99623.06;5001966;28;20681;-86
2023/07/31 11:23:08;;;;;;;1.90;1.17;;;;;;;18.85;100.00;99615.16;5021503;28;20224;-87